Namao — CZ9742 — position and weather

sailwx.info

Track history (hours):
 
Tides and Currents Weather Stations Pressure Air Temp Water Temp Dewpoint Dewpoint Depression Visibility Wind Speed Wind Dir Waves Ship Positions

Oceanographic research ship Namao (Canada)

Last reported at 2017-Oct-19 16:00 UTC. Time now 2017-Oct-19 16:33 UTC.
Position N 50°36' W 096°54'.

Wind from 130 at 9 knots

Barometer 1009.7 mb
Air temperature 6.9 ° C
Dewpoint -0.2 ° C

Date/timePositionNaut miles runAvg speedWind from/ knotsBaromVisibWave heightAir tempDewpointWater temp
2017-Oct-19 16:00N 50°36' W 096°54'0 0.0 130 / 91009.7 6.9-0.2
2017-Oct-19 15:00N 50°36' W 096°54'0 0.0 160 / 11009.8 5.2-3.3
2017-Oct-19 14:00N 50°36' W 096°54'0 0.0 230 / 41009.7 3.5-3.9
2017-Oct-19 13:00N 50°36' W 096°54'0 0.0 230 / 61010.3 3.4-3.6
2017-Oct-19 12:00N 50°36' W 096°54'0 0.0 220 / 71009.8 4.4-4.6
2017-Oct-19 11:00N 50°36' W 096°54'0 0.0 230 / 61009.4 4.8-5.3
2017-Oct-19 10:00N 50°36' W 096°54'0 0.0 230 / 61008.9 5.0-5.0
2017-Oct-19 09:00N 50°36' W 096°54'0 0.0 220 / 71008.3 5.6-6.0
2017-Oct-19 08:00N 50°36' W 096°54'0 0.0 240 / 61007.6 6.5-6.1
2017-Oct-19 07:00N 50°36' W 096°54'0 0.0 230 / 61006.9 7.4-6.9
2017-Oct-19 06:00N 50°36' W 096°54'0 0.0 250 / 101006.0 8.7-7.9
2017-Oct-19 05:00N 50°36' W 096°54'0 0.0 250 / 131005.1 9.5-7.9
2017-Oct-19 04:00N 50°36' W 096°54'0 0.0 260 / 131004.1 9.8-7.0
2017-Oct-19 03:00N 50°36' W 096°54'0 0.0 260 / 141003.3 10.2-6.3
2017-Oct-19 02:00N 50°36' W 096°54'0 0.0 250 / 161002.6 10.8-6.5
2017-Oct-19 01:00N 50°36' W 096°54'0 0.0 260 / 131001.8 11.3-7.5
2017-Oct-19 00:00N 50°36' W 096°54'0 0.0 260 / 131000.7 11.9-10.0
2017-Oct-18 23:00N 50°36' W 096°54'0 0.0 250 / 14999.6 12.9-10.2
2017-Oct-18 22:00N 50°36' W 096°54'0 0.0 240 / 17998.8 13.7-10.5
2017-Oct-18 21:00N 50°36' W 096°54'0 0.0 250 / 19998.3 13.7-10.3
2017-Oct-18 20:00N 50°36' W 096°54'0 0.0 250 / 22997.6 13.1-8.8
2017-Oct-18 19:00N 50°36' W 096°54'0 0.0 250 / 22997.3 12.5-6.8
2017-Oct-18 18:00N 50°36' W 096°54'0 0.0 250 / 22997.2 11.6-4.8
2017-Oct-18 17:00N 50°36' W 096°54'0 0.0 240 / 21997.1 10.6-3.1
2017-Oct-18 16:00N 50°36' W 096°54'0 0.0 240 / 19996.9 10.0-1.6
2017-Oct-18 15:00N 50°36' W 096°54'0 0.0 240 / 19996.5 10.1-1.0
2017-Oct-18 14:00N 50°36' W 096°54'0 0.0 230 / 20995.1 10.6 0.7
2017-Oct-18 13:00N 50°36' W 096°54'0 0.0 220 / 17994.4 11.5 1.6
2017-Oct-18 12:00N 50°36' W 096°54'0 0.0 240 / 21993.0 13.7 1.9
2017-Oct-18 11:00N 50°36' W 096°54'0 0.0 230 / 20991.1 16.9-1.1
2017-Oct-18 10:00N 50°36' W 096°54'0 0.0 210 / 15990.8 16.5-1.8
2017-Oct-18 09:00N 50°36' W 096°54'0 0.0 200 / 16990.7 12.5-0.4
2017-Oct-18 08:00N 50°36' W 096°54'0 0.0 190 / 16991.1 12.6 0.4
2017-Oct-18 07:00N 50°36' W 096°54'0 0.0 190 / 17992.4 13.1 0.8
2017-Oct-18 06:00N 50°36' W 096°54'0 0.0 190 / 16993.6 13.5 0.8
2017-Oct-18 05:00N 50°36' W 096°54'0 0.0 180 / 14994.7 14.6 1.1
2017-Oct-18 04:00N 50°36' W 096°54'0 0.0 180 / 15995.9 14.2 1.4
2017-Oct-18 03:00N 50°36' W 096°54'0 0.0 160 / 11997.1 10.7 5.7
2017-Oct-18 02:00N 50°36' W 096°54'0 0.0 170 / 10998.0 12.1 3.8
2017-Oct-18 01:00N 50°36' W 096°54'0 0.0 160 / 9998.8 12.0 5.3
2017-Oct-18 00:00N 50°36' W 096°54'0 0.0 160 / 9999.4 12.6 5.3
2017-Oct-17 23:00N 50°36' W 096°54'0 0.0 180 / 13999.9 18.8 1.4
2017-Oct-17 22:00N 50°36' W 096°54'0 0.0 180 / 121000.7 18.7 2.1
2017-Oct-17 21:00N 50°36' W 096°54'0 0.0 190 / 121001.8 18.2 1.9
2017-Oct-17 20:00N 50°36' W 096°54'0 0.0 190 / 151002.5 17.7 1.4
2017-Oct-17 19:00N 50°36' W 096°54'0 0.0 190 / 141003.7 16.6 1.7
2017-Oct-17 18:00N 50°36' W 096°54'0 0.0 200 / 141004.8 15.2 1.7
2017-Oct-17 17:00N 50°36' W 096°54'0 0.0 160 / 101005.7 10.0 5.1
2017-Oct-17 16:00N 50°36' W 096°54'0 0.0 150 / 131007.0 7.9 4.8
2017-Oct-17 15:00N 50°36' W 096°54'0 0.0 150 / 121008.3 7.0 4.2
2017-Oct-17 14:00N 50°36' W 096°54'0 0.0 140 / 91008.9 7.6 5.2
2017-Oct-17 13:00N 50°36' W 096°54'0 0.0 130 / 61009.5 7.8 6.0
2017-Oct-17 12:00N 50°36' W 096°54'0 0.0 190 / 11010.1 5.4 2.6
2017-Oct-17 11:00N 50°36' W 096°54'0 0.0 180 / 31010.1 6.3 3.7
2017-Oct-17 10:00N 50°36' W 096°54'0 0.0 310 / 21009.8 6.5-0.0
2017-Oct-17 09:00N 50°36' W 096°54'0 0.0 250 / 41010.1 7.5-0.3
2017-Oct-17 08:00N 50°36' W 096°54'0 0.0 260 / 61010.1 8.9-0.7
2017-Oct-17 07:00N 50°36' W 096°54'0 0.0 250 / 51010.0 7.9-0.6
2017-Oct-17 06:00N 50°36' W 096°54'0 0.0 230 / 61009.9 8.0-0.8
2017-Oct-17 05:00N 50°36' W 096°54'0 0.0 240 / 61009.5 8.9-0.6
2017-Oct-17 04:00N 50°36' W 096°54'0 0.0 250 / 51009.0 10.6-1.5
2017-Oct-17 03:00N 50°36' W 096°54'0 0.0 250 / 51008.3 12.4-1.3
2017-Oct-17 02:00N 50°36' W 096°54'0 0.0 250 / 61007.1 13.4-0.6
2017-Oct-17 01:00N 50°36' W 096°54'0 0.0 270 / 51005.9 14.5-0.0
2017-Oct-17 00:00N 50°36' W 096°54'0 0.0 230 / 81005.7 15.2 0.9
2017-Oct-16 23:00N 50°36' W 096°54'0 0.0 220 / 81004.9 16.4 1.2
2017-Oct-16 22:00N 50°36' W 096°54'0 0.0 230 / 101005.1 17.0 0.6
2017-Oct-16 21:00N 50°36' W 096°54'0 0.0 240 / 91005.4 16.0 0.8
2017-Oct-16 20:00N 50°36' W 096°54'0 0.0 230 / 141005.3 14.9 0.4
2017-Oct-16 19:00N 50°36' W 096°54'0 0.0 220 / 131006.1 13.6 0.1
2017-Oct-16 18:00N 50°36' W 096°54'0 0.0 200 / 131006.6 11.8-0.3
2017-Oct-16 17:00N 50°36' W 096°54'0 0.0 200 / 151007.8 9.9-0.3
2017-Oct-16 16:00N 50°36' W 096°54'0 0.0 180 / 151008.8 7.2-0.4
2017-Oct-16 15:00N 50°36' W 096°54'0 0.0 180 / 101010.5 4.1-0.9
2017-Oct-16 14:00N 50°36' W 096°54'0 0.0 180 / 101011.8 3.1-0.7
2017-Oct-16 13:00N 50°36' W 096°54'0 0.0 180 / 81012.6 2.1-0.8
2017-Oct-16 12:00N 50°36' W 096°54'0 0.0 190 / 91013.5 2.1-0.9
2017-Oct-16 11:00N 50°36' W 096°54'0 0.0 200 / 81014.4 1.8-1.9
2017-Oct-16 10:00N 50°36' W 096°54'0 0.0 210 / 81014.8 2.3-1.3
2017-Oct-16 09:00N 50°36' W 096°54'0 0.0 220 / 51015.8 1.3-0.5
2017-Oct-16 08:00N 50°36' W 096°54'0 0.0 220 / 61016.4 1.6-0.3
2017-Oct-16 07:00N 50°36' W 096°54'0 0.0 210 / 41016.9 3.0-0.4
2017-Oct-16 06:00N 50°36' W 096°54'0 0.0 230 / 41017.3 3.3-1.6
2017-Oct-16 05:00N 50°36' W 096°54'0 0.0 240 / 51017.6 3.3-2.1
2017-Oct-16 04:00N 50°36' W 096°54'0 0.0 230 / 51017.4 3.8-2.1
2017-Oct-16 03:00N 50°36' W 096°54'0 0.0 230 / 51017.5 4.9-2.2
2017-Oct-16 02:00N 50°36' W 096°54'0 0.0 250 / 41017.4 6.1-2.1
2017-Oct-16 01:00N 50°36' W 096°54'0 0.0 290 / 31017.0 7.5-1.7
2017-Oct-16 00:00N 50°36' W 096°54'0 0.0 320 / 51016.4 9.2-1.6
2017-Oct-15 23:00N 50°36' W 096°54'0 0.0 270 / 101015.6 10.8-2.4
2017-Oct-15 22:00N 50°36' W 096°54'0 0.0 270 / 71015.3 11.2-2.2
2017-Oct-15 21:00N 50°36' W 096°54'0 0.0 280 / 101014.7 12.1-2.4
2017-Oct-15 20:00N 50°36' W 096°54'0 0.0 270 / 81014.7 10.9-2.8
2017-Oct-15 18:00N 50°36' W 096°54'0 0.0 240 / 91015.1 7.0-0.3
2017-Oct-15 17:00N 50°36' W 096°54'0 0.0 230 / 81015.4 4.4-0.0
2017-Oct-15 16:00N 50°36' W 096°54'0 0.0 220 / 91015.6 3.2-0.1
2017-Oct-15 15:00N 50°36' W 096°54'0 0.0 210 / 101015.8 1.3-1.2
2017-Oct-15 14:00N 50°36' W 096°54'0 0.0 210 / 121015.7 -0.3-2.2
2017-Oct-15 13:00N 50°36' W 096°54'0 0.0 200 / 121015.9 -0.6-2.3
2017-Oct-15 12:00N 50°36' W 096°54'0 0.0 190 / 101016.5 0.1-1.5
2017-Oct-15 11:00N 50°36' W 096°54'0 0.0 190 / 91017.1 -0.7-1.5
2017-Oct-15 10:00N 50°36' W 096°54'0 0.0 180 / 81017.6 -1.2-1.4
2017-Oct-15 09:00N 50°36' W 096°54'0 0.0 190 / 91018.4 -1.1-1.3
2017-Oct-15 08:00N 50°36' W 096°54'0 0.0 200 / 91019.0 -0.0-3.8
2017-Oct-15 07:00N 50°36' W 096°54'0 0.0 200 / 31019.2 0.3-4.4
2017-Oct-15 06:00N 50°36' W 096°54'0 0.0 230 / 41020.2 -0.2-5.8
2017-Oct-15 05:00N 50°36' W 096°54'0 0.0 240 / 51020.9 -0.5-6.5
2017-Oct-15 04:00N 50°36' W 096°54'0 0.0 260 / 31021.2 0.6-5.5
2017-Oct-15 03:00N 50°36' W 096°54'0 0.0 250 / 41021.1 0.6-6.3
2017-Oct-15 02:00N 50°36' W 096°54'0 0.0 250 / 41020.9 2.1-6.1
2017-Oct-15 01:00N 50°36' W 096°54'0 0.0 270 / 31020.9 3.1-5.8
2017-Oct-15 00:00N 50°36' W 096°54'0 0.0 240 / 31020.7 4.3-5.9
2017-Oct-14 23:00N 50°36' W 096°54'0 0.0 260 / 51020.5 6.6-6.0
2017-Oct-14 22:00N 50°36' W 096°54'0 0.0 240 / 61020.5 6.6-4.3
2017-Oct-14 21:00N 50°36' W 096°54'0 0.0 230 / 31021.2 6.4-3.0
2017-Oct-14 20:00N 50°36' W 096°54'0 0.0 240 / 61021.8 5.9-3.5
2017-Oct-14 19:00N 50°36' W 096°54'0 0.0 220 / 61022.3 5.5-3.9
2017-Oct-14 18:00N 50°36' W 096°54'0 0.0 190 / 41023.4 4.6-3.0
2017-Oct-14 17:00N 50°36' W 096°54'0 0.0 210 / 61024.1 3.6-2.6
2017-Oct-14 16:00N 50°36' W 096°54'0 0.0 230 / 71024.4 1.7-0.5
2017-Oct-14 15:00N 50°36' W 096°54'0 0.0 220 / 61024.4 0.7-1.6
2017-Oct-14 14:00N 50°36' W 096°54'0 0.0 230 / 61024.0 0.1-2.7
2017-Oct-14 13:00N 50°36' W 096°54'0 0.0 210 / 41023.3 -0.0-3.8
2017-Oct-14 12:00N 50°36' W 096°54'0 0.0 270 / 41023.3 -0.2-4.2
2017-Oct-14 11:00N 50°36' W 096°54'0 0.0 290 / 41023.2 0.2-4.3
2017-Oct-14 10:00N 50°36' W 096°54'0 0.0 270 / 61023.6 -0.5-4.7
2017-Oct-14 09:00N 50°36' W 096°54'0 0.0 260 / 51023.9 -1.1-5.0
2017-Oct-14 08:00N 50°36' W 096°54'0 0.0 270 / 51023.7 -1.0-5.0
2017-Oct-14 07:00N 50°36' W 096°54'0 0.0 300 / 41023.5 -0.7-5.2
2017-Oct-14 06:00N 50°36' W 096°54'0 0.0 260 / 51023.5 -1.1-5.7
2017-Oct-14 05:00N 50°36' W 096°54'0 0.0 260 / 51023.4 -0.5-5.9
2017-Oct-14 04:00N 50°36' W 096°54'0 0.0 300 / 41022.8 1.1-5.4
2017-Oct-14 03:00N 50°36' W 096°54'0 0.0 310 / 61022.3 1.2-6.0
2017-Oct-14 02:00N 50°36' W 096°54'0 0.0 290 / 31021.7 1.5-6.1
2017-Oct-14 01:00N 50°36' W 096°54'0 0.0 310 / 61020.8 2.8-6.0
2017-Oct-14 00:00N 50°36' W 096°54'0 0.0 310 / 51019.8 4.2-5.3
2017-Oct-13 23:00N 50°36' W 096°54'0 0.0 290 / 81018.8 6.3-5.9
2017-Oct-13 22:00N 50°36' W 096°54'0 0.0 290 / 101018.1 7.1-5.7
2017-Oct-13 21:00N 50°36' W 096°54'0 0.0 250 / 131017.8 7.1-6.0
2017-Oct-13 20:00N 50°36' W 096°54'0 0.0 260 / 121017.6 7.2-5.3
2017-Oct-13 19:00N 50°36' W 096°54'0 0.0 270 / 121017.6 6.6-4.5
2017-Oct-13 18:00N 50°36' W 096°54'0 0.0 280 / 101017.5 6.3-3.0
2017-Oct-13 17:00N 50°36' W 096°54'0 0.0 240 / 121017.3 5.9-2.9
2017-Oct-13 16:00N 50°36' W 096°54'0 0.0 240 / 111016.9 5.4-2.3
2017-Oct-13 15:00N 50°36' W 096°54'0 0.0 260 / 101016.8 4.6-2.3
2017-Oct-13 14:00N 50°36' W 096°54'0 0.0 250 / 71016.3 3.6-2.9
2017-Oct-13 13:00N 50°36' W 096°54'0 0.0 220 / 91015.2 2.8 0.5
2017-Oct-13 12:00N 50°36' W 096°54'0 0.0 210 / 81014.5 2.5 0.8
2017-Oct-13 11:00N 50°36' W 096°54'0 0.0 210 / 61013.8 2.7 0.7
2017-Oct-13 10:00N 50°36' W 096°54'0 0.0 220 / 61013.4 3.0 0.8
2017-Oct-13 09:00N 50°36' W 096°54'0 0.0 200 / 71013.0 3.6 0.8
2017-Oct-13 08:00N 50°36' W 096°54'0 0.0 210 / 71012.3 3.9 1.3
2017-Oct-13 07:00N 50°36' W 096°54'0 0.0 210 / 71011.5 3.6 1.5
2017-Oct-13 06:00N 50°36' W 096°54'0 0.0 230 / 71010.8 3.9 2.0
2017-Oct-13 05:00N 50°36' W 096°54'0 0.0 260 / 71009.7 4.3 2.7
2017-Oct-13 04:00N 50°36' W 096°54'0 0.0 270 / 121009.1 5.3 3.6
2017-Oct-13 03:00N 50°36' W 096°54'0 0.0 270 / 131007.2 7.7 4.6
2017-Oct-13 02:00N 50°36' W 096°54'0 0.0 280 / 141006.2 9.1 4.0
2017-Oct-13 01:00N 50°36' W 096°54'0 0.0 260 / 121005.1 12.1 3.3
2017-Oct-13 00:00N 50°36' W 096°54'0 0.0 220 / 51004.5 13.3 4.9
2017-Oct-12 23:00N 50°36' W 096°54'0 0.0 180 / 91004.1 13.8 5.3
2017-Oct-12 22:00N 50°36' W 096°54'0 0.0 180 / 131004.6 14.6 5.1
2017-Oct-12 21:00N 50°36' W 096°54'0 0.0 170 / 111004.6 14.2 5.4
2017-Oct-12 20:00N 50°36' W 096°54'0 0.0 180 / 81005.3 13.6 5.0
2017-Oct-12 19:00N 50°36' W 096°54'0 0.0 170 / 101006.0 12.3 5.4
2017-Oct-12 18:00N 50°36' W 096°54'0 0.0 160 / 101006.4 11.2 5.2
2017-Oct-12 17:00N 50°36' W 096°54'0 0.0 190 / 121006.8 10.8 4.7
2017-Oct-12 16:00N 50°36' W 096°54'0 0.0 180 / 111007.0 9.6 5.3
2017-Oct-12 15:00N 50°36' W 096°54'0 0.0 170 / 111007.6 8.4 5.9
2017-Oct-12 14:00N 50°36' W 096°54'0 0.0 170 / 131008.0 8.3 6.5
2017-Oct-12 13:00N 50°36' W 096°54'0 0.0 160 / 131007.5 8.4 7.2
2017-Oct-12 12:00N 50°36' W 096°54'0 0.0 170 / 101008.3 8.2 6.1
2017-Oct-12 11:00N 50°36' W 096°54'0 0.0 170 / 91008.6 8.3 5.6
2017-Oct-12 10:00N 50°36' W 096°54'0 0.0 150 / 111008.7 9.0 5.3
2017-Oct-12 09:00N 50°36' W 096°54'0 0.0 160 / 111009.3 9.0 3.7
2017-Oct-12 08:00N 50°36' W 096°54'0 0.0 170 / 121009.8 9.5 2.3
2017-Oct-12 07:00N 50°36' W 096°54'0 0.0 160 / 131009.9 9.7 2.6
2017-Oct-12 06:00N 50°36' W 096°54'0 0.0 160 / 151010.2 9.5 2.5
2017-Oct-12 05:00N 50°36' W 096°54'0 0.0 160 / 141010.4 9.5 3.1
2017-Oct-12 04:00N 50°36' W 096°54'0 0.0 150 / 141010.8 10.0 3.3
2017-Oct-12 03:00N 50°36' W 096°54'0 0.0 150 / 141011.1 10.5 2.9
2017-Oct-12 02:00N 50°36' W 096°54'0 0.0 140 / 111011.7 10.7 4.2
2017-Oct-12 01:00N 50°36' W 096°54'0 0.0 160 / 71012.3 10.8 5.5
2017-Oct-12 00:00N 50°36' W 096°54'0 0.0 160 / 101011.8 11.7 3.7
2017-Oct-11 23:00N 50°36' W 096°54'0 0.0 150 / 151012.0 12.2 1.9
2017-Oct-11 22:00N 50°36' W 096°54'0 0.0 150 / 161012.5 12.9 1.7
2017-Oct-11 21:00N 50°36' W 096°54'0 0.0 150 / 181013.5 12.6 1.1
2017-Oct-11 20:00N 50°36' W 096°54'0 0.0 150 / 171014.4 12.1 1.4
2017-Oct-11 19:00N 50°36' W 096°54'0 0.0 150 / 211015.4 11.4 0.2
2017-Oct-11 18:00N 50°36' W 096°54'0 0.0 150 / 201016.8 10.6 0.6
2017-Oct-11 17:00N 50°36' W 096°54'0 0.0 160 / 181017.7 10.2 0.3
2017-Oct-11 16:00N 50°36' W 096°54'0 0.0 150 / 171018.2 8.7 0.9
2017-Oct-11 15:00N 50°36' W 096°54'0 0.0 150 / 161018.7 7.9 1.0
2017-Oct-11 14:00N 50°36' W 096°54'0 0.0 170 / 131019.3 6.9-0.2
2017-Oct-11 13:00N 50°36' W 096°54'0 0.0 170 / 111019.3 5.6-0.6
2017-Oct-11 12:00N 50°36' W 096°54'0 0.0 180 / 121019.1 5.8-0.0
2017-Oct-11 11:00N 50°36' W 096°54'0 0.0 180 / 71019.0 7.1-0.7
2017-Oct-11 10:00N 50°36' W 096°54'0 0.0 190 / 101019.2 8.1-1.0
2017-Oct-11 09:00N 50°36' W 096°54'0 0.0 190 / 101019.1 7.6-1.0
2017-Oct-11 08:00N 50°36' W 096°54'0 0.0 190 / 131019.0 7.7-0.8
2017-Oct-11 07:00N 50°36' W 096°54'0 0.0 190 / 121018.8 8.1-0.5
2017-Oct-11 06:00N 50°36' W 096°54'0 0.0 190 / 101018.6 8.9-0.4
2017-Oct-11 05:00N 50°36' W 096°54'0 0.0 180 / 91018.3 9.2 0.9
2017-Oct-11 04:00N 50°36' W 096°54'0 0.0 170 / 101018.3 9.7 4.5
2017-Oct-11 03:00N 50°36' W 096°54'0 0.0 170 / 51018.3 10.0 6.3
2017-Oct-11 02:00N 50°36' W 096°54'0 0.0 160 / 61018.1 10.8 7.4
2017-Oct-11 01:00N 50°36' W 096°54'0 0.0 160 / 71018.1 11.1 6.6
2017-Oct-11 00:00N 50°36' W 096°54'0 0.0 160 / 71018.1 11.5 6.3
2017-Oct-10 23:00N 50°36' W 096°54'0 0.0 150 / 101017.8 12.6 4.9
2017-Oct-10 22:00N 50°36' W 096°54'0 0.0 150 / 121018.0 13.2 4.0
2017-Oct-10 21:00N 50°36' W 096°54'0 0.0 180 / 131018.5 14.9-0.2
2017-Oct-10 20:00N 50°36' W 096°54'0 0.0 190 / 131018.9 14.0-0.3
2017-Oct-10 19:00N 50°36' W 096°54'0 0.0 180 / 161019.7 12.4-0.4
2017-Oct-10 18:00N 50°36' W 096°54'0 0.0 180 / 141020.2 10.7-0.8
2017-Oct-10 17:00N 50°36' W 096°54'0 0.0 180 / 121020.3 8.4-1.5
2017-Oct-10 16:00N 50°36' W 096°54'0 0.0 200 / 121020.2 5.8-2.2
2017-Oct-10 15:00N 50°36' W 096°54'0 0.0 200 / 111020.3 3.3-3.2
2017-Oct-10 14:00N 50°36' W 096°54'0 0.0 200 / 121020.2 2.1-3.9
2017-Oct-10 13:00N 50°36' W 096°54'0 0.0 200 / 131019.9 1.7-4.4
2017-Oct-10 12:00N 50°36' W 096°54'0 0.0 190 / 151019.8 1.5-4.7
2017-Oct-10 11:00N 50°36' W 096°54'0 0.0 190 / 121020.4 0.9-4.9
2017-Oct-10 10:00N 50°36' W 096°54'0 0.0 190 / 131020.7 0.6-5.0
2017-Oct-10 09:00N 50°36' W 096°54'0 0.0 190 / 121020.8 0.4-5.3
2017-Oct-10 08:00N 50°36' W 096°54'0 0.0 200 / 111021.0 0.3-5.4
2017-Oct-10 07:00N 50°36' W 096°54'0 0.0 200 / 91020.6 0.4-5.3
2017-Oct-10 06:00N 50°36' W 096°54'0 0.0 200 / 91020.8 1.1-5.0
2017-Oct-10 05:00N 50°36' W 096°54'0 0.0 190 / 91020.8 2.3-4.6
2017-Oct-10 04:00N 50°36' W 096°54'0 0.0 200 / 71021.1 3.1-3.5
2017-Oct-10 03:00N 50°36' W 096°54'0 0.0 190 / 61021.0 4.3-3.5
2017-Oct-10 02:00N 50°36' W 096°54'0 0.0 210 / 41020.9 5.0-4.3
2017-Oct-10 01:00N 50°36' W 096°54'0 0.0 230 / 41020.7 5.5-5.1
2017-Oct-10 00:00N 50°36' W 096°54'0 0.0 280 / 31020.2 6.0-5.5
2017-Oct-09 23:00N 50°36' W 096°54'0 0.0 260 / 51019.9 6.3-5.5
2017-Oct-09 22:00N 50°36' W 096°54'0 0.0 270 / 71019.8 6.8-5.5
2017-Oct-09 21:00N 50°36' W 096°54'0 0.0 270 / 81019.4 6.8-6.3
2017-Oct-09 20:00N 50°36' W 096°54'0 0.0 270 / 111019.0 6.6-6.4
2017-Oct-09 19:00N 50°36' W 096°54'0 0.0 260 / 111018.9 6.6-5.9
2017-Oct-09 18:00N 50°36' W 096°54'0 0.0 280 / 81018.9 6.2-4.5
2017-Oct-09 17:00N 50°36' W 096°54'0 0.0 280 / 101018.5 5.8-4.0
2017-Oct-09 16:00N 50°36' W 096°54'   280 / 111018.3 5.3-3.3
Track history (hours):
 
Tides and Currents Weather Stations Pressure Air Temp Water Temp Dewpoint Dewpoint Depression Visibility Wind Speed Wind Dir Waves Ship Positions

Oceanographic research ship Namao (Canada)

Last reported at 2017-Oct-19 16:00 UTC. Time now 2017-Oct-19 16:33 UTC.
Position N 50°36' W 096°54'.

Wind from 130 at 9 knots

Barometer 1009.7 mb
Air temperature 6.9 ° C
Dewpoint -0.2 ° C

Date/timePositionNaut miles runAvg speedWind from/ knotsBaromVisibWave heightAir tempDewpointWater temp
2017-Oct-19 16:00N 50°36' W 096°54'0 0.0 130 / 91009.7 6.9-0.2
2017-Oct-19 15:00N 50°36' W 096°54'0 0.0 160 / 11009.8 5.2-3.3
2017-Oct-19 14:00N 50°36' W 096°54'0 0.0 230 / 41009.7 3.5-3.9
2017-Oct-19 13:00N 50°36' W 096°54'0 0.0 230 / 61010.3 3.4-3.6
2017-Oct-19 12:00N 50°36' W 096°54'0 0.0 220 / 71009.8 4.4-4.6
2017-Oct-19 11:00N 50°36' W 096°54'0 0.0 230 / 61009.4 4.8-5.3
2017-Oct-19 10:00N 50°36' W 096°54'0 0.0 230 / 61008.9 5.0-5.0
2017-Oct-19 09:00N 50°36' W 096°54'0 0.0 220 / 71008.3 5.6-6.0
2017-Oct-19 08:00N 50°36' W 096°54'0 0.0 240 / 61007.6 6.5-6.1
2017-Oct-19 07:00N 50°36' W 096°54'0 0.0 230 / 61006.9 7.4-6.9
2017-Oct-19 06:00N 50°36' W 096°54'0 0.0 250 / 101006.0 8.7-7.9
2017-Oct-19 05:00N 50°36' W 096°54'0 0.0 250 / 131005.1 9.5-7.9
2017-Oct-19 04:00N 50°36' W 096°54'0 0.0 260 / 131004.1 9.8-7.0
2017-Oct-19 03:00N 50°36' W 096°54'0 0.0 260 / 141003.3 10.2-6.3
2017-Oct-19 02:00N 50°36' W 096°54'0 0.0 250 / 161002.6 10.8-6.5
2017-Oct-19 01:00N 50°36' W 096°54'0 0.0 260 / 131001.8 11.3-7.5
2017-Oct-19 00:00N 50°36' W 096°54'0 0.0 260 / 131000.7 11.9-10.0
2017-Oct-18 23:00N 50°36' W 096°54'0 0.0 250 / 14999.6 12.9-10.2
2017-Oct-18 22:00N 50°36' W 096°54'0 0.0 240 / 17998.8 13.7-10.5
2017-Oct-18 21:00N 50°36' W 096°54'0 0.0 250 / 19998.3 13.7-10.3
2017-Oct-18 20:00N 50°36' W 096°54'0 0.0 250 / 22997.6 13.1-8.8
2017-Oct-18 19:00N 50°36' W 096°54'0 0.0 250 / 22997.3 12.5-6.8
2017-Oct-18 18:00N 50°36' W 096°54'0 0.0 250 / 22997.2 11.6-4.8
2017-Oct-18 17:00N 50°36' W 096°54'0 0.0 240 / 21997.1 10.6-3.1
2017-Oct-18 16:00N 50°36' W 096°54'0 0.0 240 / 19996.9 10.0-1.6
2017-Oct-18 15:00N 50°36' W 096°54'0 0.0 240 / 19996.5 10.1-1.0
2017-Oct-18 14:00N 50°36' W 096°54'0 0.0 230 / 20995.1 10.6 0.7
2017-Oct-18 13:00N 50°36' W 096°54'0 0.0 220 / 17994.4 11.5 1.6
2017-Oct-18 12:00N 50°36' W 096°54'0 0.0 240 / 21993.0 13.7 1.9
2017-Oct-18 11:00N 50°36' W 096°54'0 0.0 230 / 20991.1 16.9-1.1
2017-Oct-18 10:00N 50°36' W 096°54'0 0.0 210 / 15990.8 16.5-1.8
2017-Oct-18 09:00N 50°36' W 096°54'0 0.0 200 / 16990.7 12.5-0.4
2017-Oct-18 08:00N 50°36' W 096°54'0 0.0 190 / 16991.1 12.6 0.4
2017-Oct-18 07:00N 50°36' W 096°54'0 0.0 190 / 17992.4 13.1 0.8
2017-Oct-18 06:00N 50°36' W 096°54'0 0.0 190 / 16993.6 13.5 0.8
2017-Oct-18 05:00N 50°36' W 096°54'0 0.0 180 / 14994.7 14.6 1.1
2017-Oct-18 04:00N 50°36' W 096°54'0 0.0 180 / 15995.9 14.2 1.4
2017-Oct-18 03:00N 50°36' W 096°54'0 0.0 160 / 11997.1 10.7 5.7
2017-Oct-18 02:00N 50°36' W 096°54'0 0.0 170 / 10998.0 12.1 3.8
2017-Oct-18 01:00N 50°36' W 096°54'0 0.0 160 / 9998.8 12.0 5.3
2017-Oct-18 00:00N 50°36' W 096°54'0 0.0 160 / 9999.4 12.6 5.3
2017-Oct-17 23:00N 50°36' W 096°54'0 0.0 180 / 13999.9 18.8 1.4
2017-Oct-17 22:00N 50°36' W 096°54'0 0.0 180 / 121000.7 18.7 2.1
2017-Oct-17 21:00N 50°36' W 096°54'0 0.0 190 / 121001.8 18.2 1.9
2017-Oct-17 20:00N 50°36' W 096°54'0 0.0 190 / 151002.5 17.7 1.4
2017-Oct-17 19:00N 50°36' W 096°54'0 0.0 190 / 141003.7 16.6 1.7
2017-Oct-17 18:00N 50°36' W 096°54'0 0.0 200 / 141004.8 15.2 1.7
2017-Oct-17 17:00N 50°36' W 096°54'0 0.0 160 / 101005.7 10.0 5.1
2017-Oct-17 16:00N 50°36' W 096°54'0 0.0 150 / 131007.0 7.9 4.8
2017-Oct-17 15:00N 50°36' W 096°54'0 0.0 150 / 121008.3 7.0 4.2
2017-Oct-17 14:00N 50°36' W 096°54'0 0.0 140 / 91008.9 7.6 5.2
2017-Oct-17 13:00N 50°36' W 096°54'0 0.0 130 / 61009.5 7.8 6.0
2017-Oct-17 12:00N 50°36' W 096°54'0 0.0 190 / 11010.1 5.4 2.6
2017-Oct-17 11:00N 50°36' W 096°54'0 0.0 180 / 31010.1 6.3 3.7
2017-Oct-17 10:00N 50°36' W 096°54'0 0.0 310 / 21009.8 6.5-0.0
2017-Oct-17 09:00N 50°36' W 096°54'0 0.0 250 / 41010.1 7.5-0.3
2017-Oct-17 08:00N 50°36' W 096°54'0 0.0 260 / 61010.1 8.9-0.7
2017-Oct-17 07:00N 50°36' W 096°54'0 0.0 250 / 51010.0 7.9-0.6
2017-Oct-17 06:00N 50°36' W 096°54'0 0.0 230 / 61009.9 8.0-0.8
2017-Oct-17 05:00N 50°36' W 096°54'0 0.0 240 / 61009.5 8.9-0.6
2017-Oct-17 04:00N 50°36' W 096°54'0 0.0 250 / 51009.0 10.6-1.5
2017-Oct-17 03:00N 50°36' W 096°54'0 0.0 250 / 51008.3 12.4-1.3
2017-Oct-17 02:00N 50°36' W 096°54'0 0.0 250 / 61007.1 13.4-0.6
2017-Oct-17 01:00N 50°36' W 096°54'0 0.0 270 / 51005.9 14.5-0.0
2017-Oct-17 00:00N 50°36' W 096°54'0 0.0 230 / 81005.7 15.2 0.9
2017-Oct-16 23:00N 50°36' W 096°54'0 0.0 220 / 81004.9 16.4 1.2
2017-Oct-16 22:00N 50°36' W 096°54'0 0.0 230 / 101005.1 17.0 0.6
2017-Oct-16 21:00N 50°36' W 096°54'0 0.0 240 / 91005.4 16.0 0.8
2017-Oct-16 20:00N 50°36' W 096°54'0 0.0 230 / 141005.3 14.9 0.4
2017-Oct-16 19:00N 50°36' W 096°54'0 0.0 220 / 131006.1 13.6 0.1
2017-Oct-16 18:00N 50°36' W 096°54'0 0.0 200 / 131006.6 11.8-0.3
2017-Oct-16 17:00N 50°36' W 096°54'0 0.0 200 / 151007.8 9.9-0.3
2017-Oct-16 16:00N 50°36' W 096°54'0 0.0 180 / 151008.8 7.2-0.4
2017-Oct-16 15:00N 50°36' W 096°54'0 0.0 180 / 101010.5 4.1-0.9
2017-Oct-16 14:00N 50°36' W 096°54'0 0.0 180 / 101011.8 3.1-0.7
2017-Oct-16 13:00N 50°36' W 096°54'0 0.0 180 / 81012.6 2.1-0.8
2017-Oct-16 12:00N 50°36' W 096°54'0 0.0 190 / 91013.5 2.1-0.9
2017-Oct-16 11:00N 50°36' W 096°54'0 0.0 200 / 81014.4 1.8-1.9
2017-Oct-16 10:00N 50°36' W 096°54'0 0.0 210 / 81014.8 2.3-1.3
2017-Oct-16 09:00N 50°36' W 096°54'0 0.0 220 / 51015.8 1.3-0.5
2017-Oct-16 08:00N 50°36' W 096°54'0 0.0 220 / 61016.4 1.6-0.3
2017-Oct-16 07:00N 50°36' W 096°54'0 0.0 210 / 41016.9 3.0-0.4
2017-Oct-16 06:00N 50°36' W 096°54'0 0.0 230 / 41017.3 3.3-1.6
2017-Oct-16 05:00N 50°36' W 096°54'0 0.0 240 / 51017.6 3.3-2.1
2017-Oct-16 04:00N 50°36' W 096°54'0 0.0 230 / 51017.4 3.8-2.1
2017-Oct-16 03:00N 50°36' W 096°54'0 0.0 230 / 51017.5 4.9-2.2
2017-Oct-16 02:00N 50°36' W 096°54'0 0.0 250 / 41017.4 6.1-2.1
2017-Oct-16 01:00N 50°36' W 096°54'0 0.0 290 / 31017.0 7.5-1.7
2017-Oct-16 00:00N 50°36' W 096°54'0 0.0 320 / 51016.4 9.2-1.6
2017-Oct-15 23:00N 50°36' W 096°54'0 0.0 270 / 101015.6 10.8-2.4
2017-Oct-15 22:00N 50°36' W 096°54'0 0.0 270 / 71015.3 11.2-2.2
2017-Oct-15 21:00N 50°36' W 096°54'0 0.0 280 / 101014.7 12.1-2.4
2017-Oct-15 20:00N 50°36' W 096°54'0 0.0 270 / 81014.7 10.9-2.8
2017-Oct-15 18:00N 50°36' W 096°54'0 0.0 240 / 91015.1 7.0-0.3
2017-Oct-15 17:00N 50°36' W 096°54'0 0.0 230 / 81015.4 4.4-0.0
2017-Oct-15 16:00N 50°36' W 096°54'0 0.0 220 / 91015.6 3.2-0.1
2017-Oct-15 15:00N 50°36' W 096°54'0 0.0 210 / 101015.8 1.3-1.2
2017-Oct-15 14:00N 50°36' W 096°54'0 0.0 210 / 121015.7 -0.3-2.2
2017-Oct-15 13:00N 50°36' W 096°54'0 0.0 200 / 121015.9 -0.6-2.3
2017-Oct-15 12:00N 50°36' W 096°54'0 0.0 190 / 101016.5 0.1-1.5
2017-Oct-15 11:00N 50°36' W 096°54'0 0.0 190 / 91017.1 -0.7-1.5
2017-Oct-15 10:00N 50°36' W 096°54'0 0.0 180 / 81017.6 -1.2-1.4
2017-Oct-15 09:00N 50°36' W 096°54'0 0.0 190 / 91018.4 -1.1-1.3
2017-Oct-15 08:00N 50°36' W 096°54'0 0.0 200 / 91019.0 -0.0-3.8
2017-Oct-15 07:00N 50°36' W 096°54'0 0.0 200 / 31019.2 0.3-4.4
2017-Oct-15 06:00N 50°36' W 096°54'0 0.0 230 / 41020.2 -0.2-5.8
2017-Oct-15 05:00N 50°36' W 096°54'0 0.0 240 / 51020.9 -0.5-6.5
2017-Oct-15 04:00N 50°36' W 096°54'0 0.0 260 / 31021.2 0.6-5.5
2017-Oct-15 03:00N 50°36' W 096°54'0 0.0 250 / 41021.1 0.6-6.3
2017-Oct-15 02:00N 50°36' W 096°54'0 0.0 250 / 41020.9 2.1-6.1
2017-Oct-15 01:00N 50°36' W 096°54'0 0.0 270 / 31020.9 3.1-5.8
2017-Oct-15 00:00N 50°36' W 096°54'0 0.0 240 / 31020.7 4.3-5.9
2017-Oct-14 23:00N 50°36' W 096°54'0 0.0 260 / 51020.5 6.6-6.0
2017-Oct-14 22:00N 50°36' W 096°54'0 0.0 240 / 61020.5 6.6-4.3
2017-Oct-14 21:00N 50°36' W 096°54'0 0.0 230 / 31021.2 6.4-3.0
2017-Oct-14 20:00N 50°36' W 096°54'0 0.0 240 / 61021.8 5.9-3.5
2017-Oct-14 19:00N 50°36' W 096°54'0 0.0 220 / 61022.3 5.5-3.9
2017-Oct-14 18:00N 50°36' W 096°54'0 0.0 190 / 41023.4 4.6-3.0
2017-Oct-14 17:00N 50°36' W 096°54'0 0.0 210 / 61024.1 3.6-2.6
2017-Oct-14 16:00N 50°36' W 096°54'0 0.0 230 / 71024.4 1.7-0.5
2017-Oct-14 15:00N 50°36' W 096°54'0 0.0 220 / 61024.4 0.7-1.6
2017-Oct-14 14:00N 50°36' W 096°54'0 0.0 230 / 61024.0 0.1-2.7
2017-Oct-14 13:00N 50°36' W 096°54'0 0.0 210 / 41023.3 -0.0-3.8
2017-Oct-14 12:00N 50°36' W 096°54'0 0.0 270 / 41023.3 -0.2-4.2
2017-Oct-14 11:00N 50°36' W 096°54'0 0.0 290 / 41023.2 0.2-4.3
2017-Oct-14 10:00N 50°36' W 096°54'0 0.0 270 / 61023.6 -0.5-4.7
2017-Oct-14 09:00N 50°36' W 096°54'0 0.0 260 / 51023.9 -1.1-5.0
2017-Oct-14 08:00N 50°36' W 096°54'0 0.0 270 / 51023.7 -1.0-5.0
2017-Oct-14 07:00N 50°36' W 096°54'0 0.0 300 / 41023.5 -0.7-5.2
2017-Oct-14 06:00N 50°36' W 096°54'0 0.0 260 / 51023.5 -1.1-5.7
2017-Oct-14 05:00N 50°36' W 096°54'0 0.0 260 / 51023.4 -0.5-5.9
2017-Oct-14 04:00N 50°36' W 096°54'0 0.0 300 / 41022.8 1.1-5.4
2017-Oct-14 03:00N 50°36' W 096°54'0 0.0 310 / 61022.3 1.2-6.0
2017-Oct-14 02:00N 50°36' W 096°54'0 0.0 290 / 31021.7 1.5-6.1
2017-Oct-14 01:00N 50°36' W 096°54'0 0.0 310 / 61020.8 2.8-6.0
2017-Oct-14 00:00N 50°36' W 096°54'0 0.0 310 / 51019.8 4.2-5.3
2017-Oct-13 23:00N 50°36' W 096°54'0 0.0 290 / 81018.8 6.3-5.9
2017-Oct-13 22:00N 50°36' W 096°54'0 0.0 290 / 101018.1 7.1-5.7
2017-Oct-13 21:00N 50°36' W 096°54'0 0.0 250 / 131017.8 7.1-6.0
2017-Oct-13 20:00N 50°36' W 096°54'0 0.0 260 / 121017.6 7.2-5.3
2017-Oct-13 19:00N 50°36' W 096°54'0 0.0 270 / 121017.6 6.6-4.5
2017-Oct-13 18:00N 50°36' W 096°54'0 0.0 280 / 101017.5 6.3-3.0
2017-Oct-13 17:00N 50°36' W 096°54'0 0.0 240 / 121017.3 5.9-2.9
2017-Oct-13 16:00N 50°36' W 096°54'0 0.0 240 / 111016.9 5.4-2.3
2017-Oct-13 15:00N 50°36' W 096°54'0 0.0 260 / 101016.8 4.6-2.3
2017-Oct-13 14:00N 50°36' W 096°54'0 0.0 250 / 71016.3 3.6-2.9
2017-Oct-13 13:00N 50°36' W 096°54'0 0.0 220 / 91015.2 2.8 0.5
2017-Oct-13 12:00N 50°36' W 096°54'0 0.0 210 / 81014.5 2.5 0.8
2017-Oct-13 11:00N 50°36' W 096°54'0 0.0 210 / 61013.8 2.7 0.7
2017-Oct-13 10:00N 50°36' W 096°54'0 0.0 220 / 61013.4 3.0 0.8
2017-Oct-13 09:00N 50°36' W 096°54'0 0.0 200 / 71013.0 3.6 0.8
2017-Oct-13 08:00N 50°36' W 096°54'0 0.0 210 / 71012.3 3.9 1.3
2017-Oct-13 07:00N 50°36' W 096°54'0 0.0 210 / 71011.5 3.6 1.5
2017-Oct-13 06:00N 50°36' W 096°54'0 0.0 230 / 71010.8 3.9 2.0
2017-Oct-13 05:00N 50°36' W 096°54'0 0.0 260 / 71009.7 4.3 2.7
2017-Oct-13 04:00N 50°36' W 096°54'0 0.0 270 / 121009.1 5.3 3.6
2017-Oct-13 03:00N 50°36' W 096°54'0 0.0 270 / 131007.2 7.7 4.6
2017-Oct-13 02:00N 50°36' W 096°54'0 0.0 280 / 141006.2 9.1 4.0
2017-Oct-13 01:00N 50°36' W 096°54'0 0.0 260 / 121005.1 12.1 3.3
2017-Oct-13 00:00N 50°36' W 096°54'0 0.0 220 / 51004.5 13.3 4.9
2017-Oct-12 23:00N 50°36' W 096°54'0 0.0 180 / 91004.1 13.8 5.3
2017-Oct-12 22:00N 50°36' W 096°54'0 0.0 180 / 131004.6 14.6 5.1
2017-Oct-12 21:00N 50°36' W 096°54'0 0.0 170 / 111004.6 14.2 5.4
2017-Oct-12 20:00N 50°36' W 096°54'0 0.0 180 / 81005.3 13.6 5.0
2017-Oct-12 19:00N 50°36' W 096°54'0 0.0 170 / 101006.0 12.3 5.4
2017-Oct-12 18:00N 50°36' W 096°54'0 0.0 160 / 101006.4 11.2 5.2
2017-Oct-12 17:00N 50°36' W 096°54'0 0.0 190 / 121006.8 10.8 4.7
2017-Oct-12 16:00N 50°36' W 096°54'0 0.0 180 / 111007.0 9.6 5.3
2017-Oct-12 15:00N 50°36' W 096°54'0 0.0 170 / 111007.6 8.4 5.9
2017-Oct-12 14:00N 50°36' W 096°54'0 0.0 170 / 131008.0 8.3 6.5
2017-Oct-12 13:00N 50°36' W 096°54'0 0.0 160 / 131007.5 8.4 7.2
2017-Oct-12 12:00N 50°36' W 096°54'0 0.0 170 / 101008.3 8.2 6.1
2017-Oct-12 11:00N 50°36' W 096°54'0 0.0 170 / 91008.6 8.3 5.6
2017-Oct-12 10:00N 50°36' W 096°54'0 0.0 150 / 111008.7 9.0 5.3
2017-Oct-12 09:00N 50°36' W 096°54'0 0.0 160 / 111009.3 9.0 3.7
2017-Oct-12 08:00N 50°36' W 096°54'0 0.0 170 / 121009.8 9.5 2.3
2017-Oct-12 07:00N 50°36' W 096°54'0 0.0 160 / 131009.9 9.7 2.6
2017-Oct-12 06:00N 50°36' W 096°54'0 0.0 160 / 151010.2 9.5 2.5
2017-Oct-12 05:00N 50°36' W 096°54'0 0.0 160 / 141010.4 9.5 3.1
2017-Oct-12 04:00N 50°36' W 096°54'0 0.0 150 / 141010.8 10.0 3.3
2017-Oct-12 03:00N 50°36' W 096°54'0 0.0 150 / 141011.1 10.5 2.9
2017-Oct-12 02:00N 50°36' W 096°54'0 0.0 140 / 111011.7 10.7 4.2
2017-Oct-12 01:00N 50°36' W 096°54'0 0.0 160 / 71012.3 10.8 5.5
2017-Oct-12 00:00N 50°36' W 096°54'0 0.0 160 / 101011.8 11.7 3.7
2017-Oct-11 23:00N 50°36' W 096°54'0 0.0 150 / 151012.0 12.2 1.9
2017-Oct-11 22:00N 50°36' W 096°54'0 0.0 150 / 161012.5 12.9 1.7
2017-Oct-11 21:00N 50°36' W 096°54'0 0.0 150 / 181013.5 12.6 1.1
2017-Oct-11 20:00N 50°36' W 096°54'0 0.0 150 / 171014.4 12.1 1.4
2017-Oct-11 19:00N 50°36' W 096°54'0 0.0 150 / 211015.4 11.4 0.2
2017-Oct-11 18:00N 50°36' W 096°54'0 0.0 150 / 201016.8 10.6 0.6
2017-Oct-11 17:00N 50°36' W 096°54'0 0.0 160 / 181017.7 10.2 0.3
2017-Oct-11 16:00N 50°36' W 096°54'0 0.0 150 / 171018.2 8.7 0.9
2017-Oct-11 15:00N 50°36' W 096°54'0 0.0 150 / 161018.7 7.9 1.0
2017-Oct-11 14:00N 50°36' W 096°54'0 0.0 170 / 131019.3 6.9-0.2
2017-Oct-11 13:00N 50°36' W 096°54'0 0.0 170 / 111019.3 5.6-0.6
2017-Oct-11 12:00N 50°36' W 096°54'0 0.0 180 / 121019.1 5.8-0.0
2017-Oct-11 11:00N 50°36' W 096°54'0 0.0 180 / 71019.0 7.1-0.7
2017-Oct-11 10:00N 50°36' W 096°54'0 0.0 190 / 101019.2 8.1-1.0
2017-Oct-11 09:00N 50°36' W 096°54'0 0.0 190 / 101019.1 7.6-1.0
2017-Oct-11 08:00N 50°36' W 096°54'0 0.0 190 / 131019.0 7.7-0.8
2017-Oct-11 07:00N 50°36' W 096°54'0 0.0 190 / 121018.8 8.1-0.5
2017-Oct-11 06:00N 50°36' W 096°54'0 0.0 190 / 101018.6 8.9-0.4
2017-Oct-11 05:00N 50°36' W 096°54'0 0.0 180 / 91018.3 9.2 0.9
2017-Oct-11 04:00N 50°36' W 096°54'0 0.0 170 / 101018.3 9.7 4.5
2017-Oct-11 03:00N 50°36' W 096°54'0 0.0 170 / 51018.3 10.0 6.3
2017-Oct-11 02:00N 50°36' W 096°54'0 0.0 160 / 61018.1 10.8 7.4
2017-Oct-11 01:00N 50°36' W 096°54'0 0.0 160 / 71018.1 11.1 6.6
2017-Oct-11 00:00N 50°36' W 096°54'0 0.0 160 / 71018.1 11.5 6.3
2017-Oct-10 23:00N 50°36' W 096°54'0 0.0 150 / 101017.8 12.6 4.9
2017-Oct-10 22:00N 50°36' W 096°54'0 0.0 150 / 121018.0 13.2 4.0
2017-Oct-10 21:00N 50°36' W 096°54'0 0.0 180 / 131018.5 14.9-0.2
2017-Oct-10 20:00N 50°36' W 096°54'0 0.0 190 / 131018.9 14.0-0.3
2017-Oct-10 19:00N 50°36' W 096°54'0 0.0 180 / 161019.7 12.4-0.4
2017-Oct-10 18:00N 50°36' W 096°54'0 0.0 180 / 141020.2 10.7-0.8
2017-Oct-10 17:00N 50°36' W 096°54'0 0.0 180 / 121020.3 8.4-1.5
2017-Oct-10 16:00N 50°36' W 096°54'0 0.0 200 / 121020.2 5.8-2.2
2017-Oct-10 15:00N 50°36' W 096°54'0 0.0 200 / 111020.3 3.3-3.2
2017-Oct-10 14:00N 50°36' W 096°54'0 0.0 200 / 121020.2 2.1-3.9
2017-Oct-10 13:00N 50°36' W 096°54'0 0.0 200 / 131019.9 1.7-4.4
2017-Oct-10 12:00N 50°36' W 096°54'0 0.0 190 / 151019.8 1.5-4.7
2017-Oct-10 11:00N 50°36' W 096°54'0 0.0 190 / 121020.4 0.9-4.9
2017-Oct-10 10:00N 50°36' W 096°54'0 0.0 190 / 131020.7 0.6-5.0
2017-Oct-10 09:00N 50°36' W 096°54'0 0.0 190 / 121020.8 0.4-5.3
2017-Oct-10 08:00N 50°36' W 096°54'0 0.0 200 / 111021.0 0.3-5.4
2017-Oct-10 07:00N 50°36' W 096°54'0 0.0 200 / 91020.6 0.4-5.3
2017-Oct-10 06:00N 50°36' W 096°54'0 0.0 200 / 91020.8 1.1-5.0
2017-Oct-10 05:00N 50°36' W 096°54'0 0.0 190 / 91020.8 2.3-4.6
2017-Oct-10 04:00N 50°36' W 096°54'0 0.0 200 / 71021.1 3.1-3.5
2017-Oct-10 03:00N 50°36' W 096°54'0 0.0 190 / 61021.0 4.3-3.5
2017-Oct-10 02:00N 50°36' W 096°54'0 0.0 210 / 41020.9 5.0-4.3
2017-Oct-10 01:00N 50°36' W 096°54'0 0.0 230 / 41020.7 5.5-5.1
2017-Oct-10 00:00N 50°36' W 096°54'0 0.0 280 / 31020.2 6.0-5.5
2017-Oct-09 23:00N 50°36' W 096°54'0 0.0 260 / 51019.9 6.3-5.5
2017-Oct-09 22:00N 50°36' W 096°54'0 0.0 270 / 71019.8 6.8-5.5
2017-Oct-09 21:00N 50°36' W 096°54'0 0.0 270 / 81019.4 6.8-6.3
2017-Oct-09 20:00N 50°36' W 096°54'0 0.0 270 / 111019.0 6.6-6.4
2017-Oct-09 19:00N 50°36' W 096°54'0 0.0 260 / 111018.9 6.6-5.9
2017-Oct-09 18:00N 50°36' W 096°54'0 0.0 280 / 81018.9 6.2-4.5
2017-Oct-09 17:00N 50°36' W 096°54'0 0.0 280 / 101018.5 5.8-4.0
2017-Oct-09 16:00N 50°36' W 096°54'   280 / 111018.3 5.3-3.3

Dump ship's entire track history